Terminal Aerodrome Forecast
Issued by NWS

Current Version | Previous Version | Text Only | Print | Product List | Glossary On
Versions: 1 2 3 4 5 6 7 8 9 10 11 12 13 14 15 16 17 18 19 20 21 22 23 24
729
FTUS41 KPHI 301728
TAFPNE
TAF
KPNE 301728Z 3018/0118 11012KT P6SM BKN035
     FM010100 11010KT P6SM BKN015
     FM010400 11007KT P6SM OVC008
     FM010600 13005KT 2SM BR OVC008
     FM011200 18007KT 6SM BR OVC012
     FM011400 20012KT P6SM BKN030=

USA.gov is the U.S. government's official web portal to all federal, state and local government web resources and services.